Myrtle Creek, Oregon
Current Conditions -  °F | °C
As of 11:53 AM on Saturday 25 Oct 2014 (Local Time) from KRBG Reporting Station
Light Rain Light Rain  
Wind Chill: 60°   Ceiling: 4500
Heat Index: 60°   Visibility: 5mi
Dew Point: 52°   Wind: 10mph
Humidity: 75%   Direction: 180°S
Pressure: 29.54"   Gusts: 17mph
Location:  43.02°N, 123.29°W
Report Text: KRBG 251853Z AUTO 18009G15KT 5SM -RA BKN045 OVC060 16/11 A2954 RMK AO2 SLP001 P0004 T01560111 $
Loading
Personal Weather Stations






























Interactive Weather Map
Tropical Storm Tracking
New forecast layout! Learn more

10-Day Weather Forecast

Advertisements
Track Severe Weather on mobile